Finlandia — OJPP — position and weather

sailwx.info

Track history (hours):
 
Tides and Currents Weather Stations Pressure Air Temp Water Temp Dewpoint Dewpoint Depression Visibility Wind Speed Wind Dir Waves Ship Positions

Finlandia

Last reported at 2014-Dec-22 18:29 UTC. Time now 2014-Dec-23 02:18 UTC.
Position N 59°45' E 024°48'.

Length 175 m; draft 7 m.

Type: Ship (hazmat cat A). MMSI: 230628000.

Date/timePositionNaut miles runAvg speedWind from/ knotsBaromVisibWave heightAir tempDewpointWater temp
2014-Dec-22 18:29N 59°45' E 024°48'1819.2
2014-Dec-22 17:33N 59°27' E 024°46'0 0.1
2014-Dec-22 16:33N 59°27' E 024°46'1110.7
2014-Dec-22 15:33N 59°37' E 024°40'11 2.5
2014-Dec-22 11:10N 59°48' E 024°45'1320.9
2014-Dec-22 10:33N 59°35' E 024°42'9 8.6
2014-Dec-22 09:34N 59°27' E 024°46'5 4.7
2014-Dec-22 08:34N 59°31' E 024°44'2019.7
2014-Dec-22 07:33N 59°51' E 024°48'5 0.4
2014-Dec-21 18:24N 59°46' E 024°45'1821.3
2014-Dec-21 17:33N 59°28' E 024°47'2 1.7
2014-Dec-21 16:33N 59°27' E 024°46'5 5.4
2014-Dec-21 15:33N 59°32' E 024°43'15 3.8
2014-Dec-21 11:31N 59°47' E 024°45'2020.9
2014-Dec-21 10:33N 59°27' E 024°47'1 0.7
2014-Dec-21 09:33N 59°27' E 024°46'4 4.3
2014-Dec-21 08:33N 59°31' E 024°44'14 1.0
2014-Dec-20 18:33N 59°45' E 024°43'1818.0
2014-Dec-20 17:33N 59°27' E 024°46'0 0.0
2014-Dec-20 16:34N 59°27' E 024°46'1010.1
2014-Dec-20 15:34N 59°36' E 024°40'1 0.3
2014-Dec-20 10:33N 59°37' E 024°41'1111.0
2014-Dec-20 09:33N 59°27' E 024°46'3 3.3
2014-Dec-20 08:34N 59°30' E 024°45'2220.5
2014-Dec-20 07:28N 59°52' E 024°50'6 0.4
2014-Dec-19 18:26N 59°46' E 024°52'1921.3
2014-Dec-19 17:33N 59°28' E 024°47'1 1.1
2014-Dec-19 16:33N 59°27' E 024°46'1010.0
2014-Dec-19 15:34N 59°36' E 024°40'2 0.3
2014-Dec-19 10:33N 59°38' E 024°42'1110.5
2014-Dec-19 09:30N 59°27' E 024°46'4 4.0
2014-Dec-19 08:33N 59°30' E 024°44'18 1.3
2014-Dec-18 18:32N 59°49' E 024°46'2222.2
2014-Dec-18 17:34N 59°27' E 024°47'1 0.6
2014-Dec-18 16:31N 59°27' E 024°46'1111.3
2014-Dec-18 15:34N 59°37' E 024°40'3 0.5
2014-Dec-18 10:33N 59°35' E 024°42'8 8.0
2014-Dec-18 09:32N 59°27' E 024°46'3 3.1
2014-Dec-18 08:34N 59°30' E 024°45'17 1.2
2014-Dec-17 18:33N 59°46' E 024°50'2020.0
2014-Dec-17 17:33N 59°27' E 024°46'0 0.0
2014-Dec-17 16:31N 59°27' E 024°46'1313.2
2014-Dec-17 15:33N 59°39' E 024°40'6 1.4
2014-Dec-17 11:04N 59°44' E 024°48'1121.1
2014-Dec-17 10:33N 59°33' E 024°43'6 6.4
2014-Dec-17 09:33N 59°27' E 024°46'4 3.5
2014-Dec-17 08:34N 59°30' E 024°44'2120.5
2014-Dec-17 07:33N 59°51' E 024°48'6 0.5
2014-Dec-16 18:26N 59°44' E 024°48'1820.1
2014-Dec-16 17:34N 59°27' E 024°46'0 0.2
2014-Dec-16 16:31N 59°27' E 024°46'1111.5
2014-Dec-16 15:33N 59°37' E 024°40'1 0.3
2014-Dec-16 10:34N 59°36' E 024°41'10 9.6
2014-Dec-16 09:33N 59°27' E 024°46'3 3.1
2014-Dec-16 08:33N 59°30' E 024°45'15 1.1
2014-Dec-15 18:33N 59°44' E 024°49'1817.9
2014-Dec-15 17:33N 59°27' E 024°46'0 0.0
2014-Dec-15 16:33N 59°27' E 024°46'1110.7
2014-Dec-15 15:33N 59°37' E 024°40'1 0.2
2014-Dec-15 10:33N 59°37' E 024°41'1010.1
2014-Dec-15 09:33N 59°27' E 024°46'2 2.2
2014-Dec-15 08:34N 59°29' E 024°46'1919.1
2014-Dec-15 07:32N 59°48' E 024°49'2 0.1
2014-Dec-14 18:26N 59°47' E 024°46'2022.3
2014-Dec-14 17:33N 59°28' E 024°47'1 0.9
2014-Dec-14 16:33N 59°27' E 024°46'6 5.7
2014-Dec-14 15:34N 59°32' E 024°43'5 0.9
2014-Dec-14 10:33N 59°37' E 024°41'1010.3
2014-Dec-14 09:33N 59°27' E 024°46'3 2.7
2014-Dec-14 08:33N 59°29' E 024°45'18 1.3
2014-Dec-13 18:26N 59°48' E 024°46'1921.4
2014-Dec-13 17:33N 59°29' E 024°46'2 2.0
2014-Dec-13 16:32N 59°27' E 024°46'1111.2
2014-Dec-13 15:33N 59°37' E 024°40'2 0.3
2014-Dec-13 10:33N 59°38' E 024°43'1211.5
2014-Dec-13 09:33N 59°27' E 024°46'3 2.5
2014-Dec-13 08:34N 59°29' E 024°45'  
Track history (hours):
 
Tides and Currents Weather Stations Pressure Air Temp Water Temp Dewpoint Dewpoint Depression Visibility Wind Speed Wind Dir Waves Ship Positions

Finlandia

Last reported at 2014-Dec-22 18:29 UTC. Time now 2014-Dec-23 02:18 UTC.
Position N 59°45' E 024°48'.

Length 175 m; draft 7 m.

Type: Ship (hazmat cat A). MMSI: 230628000.

Date/timePositionNaut miles runAvg speedWind from/ knotsBaromVisibWave heightAir tempDewpointWater temp
2014-Dec-22 18:29N 59°45' E 024°48'1819.2
2014-Dec-22 17:33N 59°27' E 024°46'0 0.1
2014-Dec-22 16:33N 59°27' E 024°46'1110.7
2014-Dec-22 15:33N 59°37' E 024°40'11 2.5
2014-Dec-22 11:10N 59°48' E 024°45'1320.9
2014-Dec-22 10:33N 59°35' E 024°42'9 8.6
2014-Dec-22 09:34N 59°27' E 024°46'5 4.7
2014-Dec-22 08:34N 59°31' E 024°44'2019.7
2014-Dec-22 07:33N 59°51' E 024°48'5 0.4
2014-Dec-21 18:24N 59°46' E 024°45'1821.3
2014-Dec-21 17:33N 59°28' E 024°47'2 1.7
2014-Dec-21 16:33N 59°27' E 024°46'5 5.4
2014-Dec-21 15:33N 59°32' E 024°43'15 3.8
2014-Dec-21 11:31N 59°47' E 024°45'2020.9
2014-Dec-21 10:33N 59°27' E 024°47'1 0.7
2014-Dec-21 09:33N 59°27' E 024°46'4 4.3
2014-Dec-21 08:33N 59°31' E 024°44'14 1.0
2014-Dec-20 18:33N 59°45' E 024°43'1818.0
2014-Dec-20 17:33N 59°27' E 024°46'0 0.0
2014-Dec-20 16:34N 59°27' E 024°46'1010.1
2014-Dec-20 15:34N 59°36' E 024°40'1 0.3
2014-Dec-20 10:33N 59°37' E 024°41'1111.0
2014-Dec-20 09:33N 59°27' E 024°46'3 3.3
2014-Dec-20 08:34N 59°30' E 024°45'2220.5
2014-Dec-20 07:28N 59°52' E 024°50'6 0.4
2014-Dec-19 18:26N 59°46' E 024°52'1921.3
2014-Dec-19 17:33N 59°28' E 024°47'1 1.1
2014-Dec-19 16:33N 59°27' E 024°46'1010.0
2014-Dec-19 15:34N 59°36' E 024°40'2 0.3
2014-Dec-19 10:33N 59°38' E 024°42'1110.5
2014-Dec-19 09:30N 59°27' E 024°46'4 4.0
2014-Dec-19 08:33N 59°30' E 024°44'18 1.3
2014-Dec-18 18:32N 59°49' E 024°46'2222.2
2014-Dec-18 17:34N 59°27' E 024°47'1 0.6
2014-Dec-18 16:31N 59°27' E 024°46'1111.3
2014-Dec-18 15:34N 59°37' E 024°40'3 0.5
2014-Dec-18 10:33N 59°35' E 024°42'8 8.0
2014-Dec-18 09:32N 59°27' E 024°46'3 3.1
2014-Dec-18 08:34N 59°30' E 024°45'17 1.2
2014-Dec-17 18:33N 59°46' E 024°50'2020.0
2014-Dec-17 17:33N 59°27' E 024°46'0 0.0
2014-Dec-17 16:31N 59°27' E 024°46'1313.2
2014-Dec-17 15:33N 59°39' E 024°40'6 1.4
2014-Dec-17 11:04N 59°44' E 024°48'1121.1
2014-Dec-17 10:33N 59°33' E 024°43'6 6.4
2014-Dec-17 09:33N 59°27' E 024°46'4 3.5
2014-Dec-17 08:34N 59°30' E 024°44'2120.5
2014-Dec-17 07:33N 59°51' E 024°48'6 0.5
2014-Dec-16 18:26N 59°44' E 024°48'1820.1
2014-Dec-16 17:34N 59°27' E 024°46'0 0.2
2014-Dec-16 16:31N 59°27' E 024°46'1111.5
2014-Dec-16 15:33N 59°37' E 024°40'1 0.3
2014-Dec-16 10:34N 59°36' E 024°41'10 9.6
2014-Dec-16 09:33N 59°27' E 024°46'3 3.1
2014-Dec-16 08:33N 59°30' E 024°45'15 1.1
2014-Dec-15 18:33N 59°44' E 024°49'1817.9
2014-Dec-15 17:33N 59°27' E 024°46'0 0.0
2014-Dec-15 16:33N 59°27' E 024°46'1110.7
2014-Dec-15 15:33N 59°37' E 024°40'1 0.2
2014-Dec-15 10:33N 59°37' E 024°41'1010.1
2014-Dec-15 09:33N 59°27' E 024°46'2 2.2
2014-Dec-15 08:34N 59°29' E 024°46'1919.1
2014-Dec-15 07:32N 59°48' E 024°49'2 0.1
2014-Dec-14 18:26N 59°47' E 024°46'2022.3
2014-Dec-14 17:33N 59°28' E 024°47'1 0.9
2014-Dec-14 16:33N 59°27' E 024°46'6 5.7
2014-Dec-14 15:34N 59°32' E 024°43'5 0.9
2014-Dec-14 10:33N 59°37' E 024°41'1010.3
2014-Dec-14 09:33N 59°27' E 024°46'3 2.7
2014-Dec-14 08:33N 59°29' E 024°45'18 1.3
2014-Dec-13 18:26N 59°48' E 024°46'1921.4
2014-Dec-13 17:33N 59°29' E 024°46'2 2.0
2014-Dec-13 16:32N 59°27' E 024°46'1111.2
2014-Dec-13 15:33N 59°37' E 024°40'2 0.3
2014-Dec-13 10:33N 59°38' E 024°43'1211.5
2014-Dec-13 09:33N 59°27' E 024°46'3 2.5
2014-Dec-13 08:34N 59°29' E 024°45'  

Dump ship's entire track history